sensor_id;sensor_type;location;lat;lon;timestamp;P1;durP1;ratioP1;P2;durP2;ratioP2
25639;SDS011;13497;48.322;16.204;2024-01-11T00:02:14;32.15;;;27.20;;
25639;SDS011;13497;48.322;16.204;2024-01-11T00:04:42;33.35;;;27.52;;
25639;SDS011;13497;48.322;16.204;2024-01-11T00:07:09;30.05;;;26.63;;
25639;SDS011;13497;48.322;16.204;2024-01-11T00:09:44;31.98;;;28.77;;
25639;SDS011;13497;48.322;16.204;2024-01-11T00:12:09;32.13;;;28.40;;
25639;SDS011;13497;48.322;16.204;2024-01-11T00:14:35;37.03;;;30.08;;
25639;SDS011;13497;48.322;16.204;2024-01-11T00:17:01;32.30;;;27.23;;
25639;SDS011;13497;48.322;16.204;2024-01-11T00:19:27;36.30;;;29.33;;
25639;SDS011;13497;48.322;16.204;2024-01-11T00:21:53;33.25;;;27.48;;
25639;SDS011;13497;48.322;16.204;2024-01-11T00:24:18;31.27;;;28.15;;
25639;SDS011;13497;48.322;16.204;2024-01-11T00:26:44;31.33;;;27.27;;
25639;SDS011;13497;48.322;16.204;2024-01-11T00:29:10;33.08;;;29.10;;
25639;SDS011;13497;48.322;16.204;2024-01-11T00:31:35;33.40;;;29.77;;
25639;SDS011;13497;48.322;16.204;2024-01-11T00:34:02;32.42;;;29.38;;
25639;SDS011;13497;48.322;16.204;2024-01-11T00:36:28;29.65;;;19.67;;
25639;SDS011;13497;48.322;16.204;2024-01-11T00:38:54;39.53;;;29.55;;
25639;SDS011;13497;48.322;16.204;2024-01-11T00:41:19;34.13;;;29.67;;
25639;SDS011;13497;48.322;16.204;2024-01-11T00:43:45;34.67;;;29.25;;
25639;SDS011;13497;48.322;16.204;2024-01-11T00:46:11;33.95;;;28.02;;
25639;SDS011;13497;48.322;16.204;2024-01-11T00:48:37;31.63;;;27.83;;
25639;SDS011;13497;48.322;16.204;2024-01-11T00:51:06;39.75;;;29.40;;
25639;SDS011;13497;48.322;16.204;2024-01-11T00:53:32;34.58;;;30.63;;
25639;SDS011;13497;48.322;16.204;2024-01-11T00:55:58;34.65;;;28.88;;
25639;SDS011;13497;48.322;16.204;2024-01-11T00:58:24;35.33;;;31.38;;
25639;SDS011;13497;48.322;16.204;2024-01-11T01:00:50;33.65;;;28.67;;
25639;SDS011;13497;48.322;16.204;2024-01-11T01:03:17;33.92;;;30.38;;
25639;SDS011;13497;48.322;16.204;2024-01-11T01:05:44;32.63;;;27.38;;
25639;SDS011;13497;48.322;16.204;2024-01-11T01:08:10;36.00;;;28.13;;
25639;SDS011;13497;48.322;16.204;2024-01-11T01:10:36;40.50;;;30.75;;
25639;SDS011;13497;48.322;16.204;2024-01-11T01:13:02;31.23;;;27.20;;
25639;SDS011;13497;48.322;16.204;2024-01-11T01:15:28;35.13;;;31.55;;
25639;SDS011;13497;48.322;16.204;2024-01-11T01:17:54;30.85;;;18.98;;
25639;SDS011;13497;48.322;16.204;2024-01-11T01:20:19;35.95;;;27.88;;
25639;SDS011;13497;48.322;16.204;2024-01-11T01:22:45;33.00;;;26.23;;
25639;SDS011;13497;48.322;16.204;2024-01-11T01:25:10;31.52;;;28.50;;
25639;SDS011;13497;48.322;16.204;2024-01-11T01:27:36;35.00;;;27.98;;
25639;SDS011;13497;48.322;16.204;2024-01-11T01:30:02;28.48;;;20.73;;
25639;SDS011;13497;48.322;16.204;2024-01-11T01:32:28;34.53;;;29.52;;
25639;SDS011;13497;48.322;16.204;2024-01-11T01:34:55;34.22;;;30.65;;
25639;SDS011;13497;48.322;16.204;2024-01-11T01:37:21;30.58;;;27.35;;
25639;SDS011;13497;48.322;16.204;2024-01-11T01:39:46;28.90;;;18.35;;
25639;SDS011;13497;48.322;16.204;2024-01-11T01:42:12;35.08;;;27.88;;
25639;SDS011;13497;48.322;16.204;2024-01-11T01:44:38;33.20;;;29.63;;
25639;SDS011;13497;48.322;16.204;2024-01-11T01:47:05;32.80;;;28.08;;
25639;SDS011;13497;48.322;16.204;2024-01-11T01:49:32;28.15;;;22.13;;
25639;SDS011;13497;48.322;16.204;2024-01-11T01:51:58;33.03;;;26.83;;
25639;SDS011;13497;48.322;16.204;2024-01-11T01:54:24;31.42;;;25.42;;
25639;SDS011;13497;48.322;16.204;2024-01-11T01:56:50;26.27;;;23.73;;
25639;SDS011;13497;48.322;16.204;2024-01-11T01:59:17;30.48;;;25.23;;
25639;SDS011;13497;48.322;16.204;2024-01-11T02:01:44;31.45;;;26.58;;
25639;SDS011;13497;48.322;16.204;2024-01-11T02:04:10;33.67;;;26.13;;
25639;SDS011;13497;48.322;16.204;2024-01-11T02:06:36;31.42;;;27.33;;
25639;SDS011;13497;48.322;16.204;2024-01-11T02:09:03;35.38;;;27.13;;
25639;SDS011;13497;48.322;16.204;2024-01-11T02:11:29;35.40;;;26.98;;
25639;SDS011;13497;48.322;16.204;2024-01-11T02:13:55;30.33;;;26.33;;
25639;SDS011;13497;48.322;16.204;2024-01-11T02:16:22;37.65;;;27.65;;
25639;SDS011;13497;48.322;16.204;2024-01-11T02:18:49;30.38;;;27.10;;
25639;SDS011;13497;48.322;16.204;2024-01-11T02:21:14;33.65;;;29.77;;
25639;SDS011;13497;48.322;16.204;2024-01-11T02:23:54;31.88;;;26.42;;
25639;SDS011;13497;48.322;16.204;2024-01-11T02:26:26;31.30;;;26.35;;
25639;SDS011;13497;48.322;16.204;2024-01-11T02:28:51;36.63;;;28.63;;
25639;SDS011;13497;48.322;16.204;2024-01-11T02:31:17;36.53;;;20.85;;
25639;SDS011;13497;48.322;16.204;2024-01-11T02:33:42;30.13;;;26.85;;
25639;SDS011;13497;48.322;16.204;2024-01-11T02:36:08;33.45;;;28.63;;
25639;SDS011;13497;48.322;16.204;2024-01-11T02:38:35;30.33;;;26.83;;
25639;SDS011;13497;48.322;16.204;2024-01-11T02:41:01;31.17;;;26.60;;
25639;SDS011;13497;48.322;16.204;2024-01-11T02:43:28;35.67;;;27.90;;
25639;SDS011;13497;48.322;16.204;2024-01-11T02:45:54;36.92;;;30.88;;
25639;SDS011;13497;48.322;16.204;2024-01-11T02:48:20;32.72;;;29.30;;
25639;SDS011;13497;48.322;16.204;2024-01-11T02:50:48;29.77;;;26.83;;
25639;SDS011;13497;48.322;16.204;2024-01-11T02:53:14;29.95;;;26.45;;
25639;SDS011;13497;48.322;16.204;2024-01-11T02:55:39;30.52;;;27.55;;
25639;SDS011;13497;48.322;16.204;2024-01-11T02:58:05;29.85;;;26.58;;
25639;SDS011;13497;48.322;16.204;2024-01-11T03:00:31;29.75;;;25.95;;
25639;SDS011;13497;48.322;16.204;2024-01-11T03:02:56;30.98;;;27.73;;
25639;SDS011;13497;48.322;16.204;2024-01-11T03:05:22;32.17;;;23.98;;
25639;SDS011;13497;48.322;16.204;2024-01-11T03:07:48;36.97;;;33.25;;
25639;SDS011;13497;48.322;16.204;2024-01-11T03:10:13;33.05;;;29.73;;
25639;SDS011;13497;48.322;16.204;2024-01-11T03:12:39;26.88;;;16.80;;
25639;SDS011;13497;48.322;16.204;2024-01-11T03:15:05;29.83;;;18.70;;
25639;SDS011;13497;48.322;16.204;2024-01-11T03:17:31;32.05;;;27.73;;
25639;SDS011;13497;48.322;16.204;2024-01-11T03:19:57;34.97;;;26.20;;
25639;SDS011;13497;48.322;16.204;2024-01-11T03:22:24;30.02;;;27.10;;
25639;SDS011;13497;48.322;16.204;2024-01-11T03:24:51;29.13;;;26.20;;
25639;SDS011;13497;48.322;16.204;2024-01-11T03:27:16;31.08;;;27.85;;
25639;SDS011;13497;48.322;16.204;2024-01-11T03:29:42;32.78;;;29.35;;
25639;SDS011;13497;48.322;16.204;2024-01-11T03:32:08;32.45;;;28.13;;
25639;SDS011;13497;48.322;16.204;2024-01-11T03:34:33;32.58;;;29.20;;
25639;SDS011;13497;48.322;16.204;2024-01-11T03:36:59;29.17;;;26.08;;
25639;SDS011;13497;48.322;16.204;2024-01-11T03:39:25;30.92;;;27.88;;
25639;SDS011;13497;48.322;16.204;2024-01-11T03:41:51;30.83;;;25.17;;
25639;SDS011;13497;48.322;16.204;2024-01-11T03:44:16;30.38;;;27.45;;
25639;SDS011;13497;48.322;16.204;2024-01-11T03:46:42;28.52;;;25.65;;
25639;SDS011;13497;48.322;16.204;2024-01-11T03:49:08;33.25;;;23.60;;
25639;SDS011;13497;48.322;16.204;2024-01-11T03:51:34;27.83;;;16.55;;
25639;SDS011;13497;48.322;16.204;2024-01-11T03:54:00;28.17;;;23.40;;
25639;SDS011;13497;48.322;16.204;2024-01-11T03:56:26;31.30;;;28.02;;
25639;SDS011;13497;48.322;16.204;2024-01-11T03:58:52;28.63;;;25.70;;
25639;SDS011;13497;48.322;16.204;2024-01-11T04:01:17;27.75;;;24.65;;
25639;SDS011;13497;48.322;16.204;2024-01-11T04:03:44;30.85;;;24.90;;
25639;SDS011;13497;48.322;16.204;2024-01-11T04:06:18;30.58;;;27.35;;
25639;SDS011;13497;48.322;16.204;2024-01-11T04:08:46;30.70;;;26.73;;
25639;SDS011;13497;48.322;16.204;2024-01-11T04:11:12;34.97;;;26.15;;
25639;SDS011;13497;48.322;16.204;2024-01-11T04:13:37;29.30;;;25.25;;
25639;SDS011;13497;48.322;16.204;2024-01-11T04:16:07;30.02;;;26.70;;
25639;SDS011;13497;48.322;16.204;2024-01-11T04:18:33;27.73;;;24.98;;
25639;SDS011;13497;48.322;16.204;2024-01-11T04:20:58;34.42;;;31.27;;
25639;SDS011;13497;48.322;16.204;2024-01-11T04:23:24;31.67;;;28.58;;
25639;SDS011;13497;48.322;16.204;2024-01-11T04:25:50;27.65;;;24.75;;
25639;SDS011;13497;48.322;16.204;2024-01-11T04:28:16;29.13;;;26.17;;
25639;SDS011;13497;48.322;16.204;2024-01-11T04:30:42;26.67;;;23.30;;
25639;SDS011;13497;48.322;16.204;2024-01-11T04:33:09;31.48;;;28.27;;
25639;SDS011;13497;48.322;16.204;2024-01-11T04:35:35;31.17;;;27.95;;
25639;SDS011;13497;48.322;16.204;2024-01-11T04:38:02;29.92;;;27.02;;
25639;SDS011;13497;48.322;16.204;2024-01-11T04:40:28;28.27;;;23.45;;
25639;SDS011;13497;48.322;16.204;2024-01-11T04:42:54;31.23;;;24.17;;
25639;SDS011;13497;48.322;16.204;2024-01-11T04:45:19;32.80;;;29.20;;
25639;SDS011;13497;48.322;16.204;2024-01-11T04:47:45;29.83;;;26.02;;
25639;SDS011;13497;48.322;16.204;2024-01-11T04:50:10;32.53;;;29.40;;
25639;SDS011;13497;48.322;16.204;2024-01-11T04:52:36;29.23;;;26.30;;
25639;SDS011;13497;48.322;16.204;2024-01-11T04:55:02;33.13;;;29.85;;
25639;SDS011;13497;48.322;16.204;2024-01-11T04:57:28;23.65;;;16.38;;
25639;SDS011;13497;48.322;16.204;2024-01-11T04:59:53;30.60;;;27.38;;
25639;SDS011;13497;48.322;16.204;2024-01-11T05:02:20;30.23;;;25.52;;
25639;SDS011;13497;48.322;16.204;2024-01-11T05:04:46;32.22;;;29.02;;
25639;SDS011;13497;48.322;16.204;2024-01-11T05:07:12;29.08;;;25.75;;
25639;SDS011;13497;48.322;16.204;2024-01-11T05:09:38;29.77;;;24.88;;
25639;SDS011;13497;48.322;16.204;2024-01-11T05:12:05;29.58;;;27.00;;
25639;SDS011;13497;48.322;16.204;2024-01-11T05:14:31;34.30;;;30.63;;
25639;SDS011;13497;48.322;16.204;2024-01-11T05:16:57;33.15;;;29.67;;
25639;SDS011;13497;48.322;16.204;2024-01-11T05:19:23;30.48;;;26.80;;
25639;SDS011;13497;48.322;16.204;2024-01-11T05:21:49;35.00;;;27.52;;
25639;SDS011;13497;48.322;16.204;2024-01-11T05:24:14;32.17;;;27.48;;
25639;SDS011;13497;48.322;16.204;2024-01-11T05:26:40;30.98;;;27.85;;
25639;SDS011;13497;48.322;16.204;2024-01-11T05:29:06;28.75;;;25.17;;
25639;SDS011;13497;48.322;16.204;2024-01-11T05:31:31;32.95;;;30.05;;
25639;SDS011;13497;48.322;16.204;2024-01-11T05:33:57;30.05;;;26.50;;
25639;SDS011;13497;48.322;16.204;2024-01-11T05:36:22;36.17;;;32.80;;
25639;SDS011;13497;48.322;16.204;2024-01-11T05:38:48;31.63;;;28.52;;
25639;SDS011;13497;48.322;16.204;2024-01-11T05:41:14;28.98;;;26.10;;
25639;SDS011;13497;48.322;16.204;2024-01-11T05:43:40;28.98;;;25.40;;
25639;SDS011;13497;48.322;16.204;2024-01-11T05:46:07;31.83;;;28.55;;
25639;SDS011;13497;48.322;16.204;2024-01-11T05:48:33;30.05;;;26.52;;
25639;SDS011;13497;48.322;16.204;2024-01-11T05:50:58;30.73;;;27.45;;
25639;SDS011;13497;48.322;16.204;2024-01-11T05:53:25;27.17;;;24.35;;
25639;SDS011;13497;48.322;16.204;2024-01-11T05:55:52;31.10;;;27.73;;
25639;SDS011;13497;48.322;16.204;2024-01-11T05:58:18;26.05;;;16.83;;
25639;SDS011;13497;48.322;16.204;2024-01-11T06:00:44;33.20;;;29.70;;
25639;SDS011;13497;48.322;16.204;2024-01-11T06:03:13;34.95;;;31.27;;
25639;SDS011;13497;48.322;16.204;2024-01-11T06:05:39;33.78;;;28.92;;
25639;SDS011;13497;48.322;16.204;2024-01-11T06:08:05;32.42;;;28.20;;
25639;SDS011;13497;48.322;16.204;2024-01-11T06:10:31;36.53;;;31.55;;
25639;SDS011;13497;48.322;16.204;2024-01-11T06:12:56;36.50;;;32.85;;
25639;SDS011;13497;48.322;16.204;2024-01-11T06:15:22;32.65;;;29.23;;
25639;SDS011;13497;48.322;16.204;2024-01-11T06:17:48;33.97;;;28.58;;
25639;SDS011;13497;48.322;16.204;2024-01-11T06:20:13;39.83;;;31.15;;
25639;SDS011;13497;48.322;16.204;2024-01-11T06:22:39;33.80;;;28.58;;
25639;SDS011;13497;48.322;16.204;2024-01-11T06:25:05;35.90;;;31.50;;
25639;SDS011;13497;48.322;16.204;2024-01-11T06:27:31;30.70;;;27.52;;
25639;SDS011;13497;48.322;16.204;2024-01-11T06:29:57;42.25;;;33.42;;
25639;SDS011;13497;48.322;16.204;2024-01-11T06:32:23;44.97;;;36.47;;
25639;SDS011;13497;48.322;16.204;2024-01-11T06:34:49;51.13;;;37.47;;
25639;SDS011;13497;48.322;16.204;2024-01-11T06:37:14;58.22;;;39.05;;
25639;SDS011;13497;48.322;16.204;2024-01-11T06:39:40;37.60;;;32.70;;
25639;SDS011;13497;48.322;16.204;2024-01-11T06:42:06;33.50;;;28.75;;
25639;SDS011;13497;48.322;16.204;2024-01-11T06:44:31;37.40;;;32.42;;
25639;SDS011;13497;48.322;16.204;2024-01-11T06:46:57;30.35;;;20.83;;
25639;SDS011;13497;48.322;16.204;2024-01-11T06:49:22;34.25;;;30.85;;
25639;SDS011;13497;48.322;16.204;2024-01-11T06:51:48;36.55;;;32.67;;
25639;SDS011;13497;48.322;16.204;2024-01-11T06:54:14;36.85;;;30.67;;
25639;SDS011;13497;48.322;16.204;2024-01-11T06:56:39;35.20;;;31.20;;
25639;SDS011;13497;48.322;16.204;2024-01-11T06:59:05;36.25;;;32.33;;
25639;SDS011;13497;48.322;16.204;2024-01-11T07:01:32;33.35;;;29.90;;
25639;SDS011;13497;48.322;16.204;2024-01-11T07:03:58;38.38;;;30.85;;
25639;SDS011;13497;48.322;16.204;2024-01-11T07:06:24;34.22;;;30.88;;
25639;SDS011;13497;48.322;16.204;2024-01-11T07:08:49;34.63;;;31.23;;
25639;SDS011;13497;48.322;16.204;2024-01-11T07:11:15;45.42;;;41.13;;
25639;SDS011;13497;48.322;16.204;2024-01-11T07:13:41;39.75;;;33.20;;
25639;SDS011;13497;48.322;16.204;2024-01-11T07:16:07;49.00;;;44.90;;
25639;SDS011;13497;48.322;16.204;2024-01-11T07:18:33;47.60;;;41.95;;
25639;SDS011;13497;48.322;16.204;2024-01-11T07:20:59;52.42;;;39.17;;
25639;SDS011;13497;48.322;16.204;2024-01-11T07:23:25;55.75;;;39.28;;
25639;SDS011;13497;48.322;16.204;2024-01-11T07:25:51;50.35;;;31.08;;
25639;SDS011;13497;48.322;16.204;2024-01-11T07:28:17;61.15;;;47.13;;
25639;SDS011;13497;48.322;16.204;2024-01-11T07:30:42;52.20;;;44.28;;
25639;SDS011;13497;48.322;16.204;2024-01-11T07:33:08;57.58;;;44.53;;
25639;SDS011;13497;48.322;16.204;2024-01-11T07:35:34;61.50;;;40.70;;
25639;SDS011;13497;48.322;16.204;2024-01-11T07:38:00;66.85;;;44.70;;
25639;SDS011;13497;48.322;16.204;2024-01-11T07:40:26;75.05;;;51.63;;
25639;SDS011;13497;48.322;16.204;2024-01-11T07:42:52;76.07;;;45.42;;
25639;SDS011;13497;48.322;16.204;2024-01-11T07:45:18;57.63;;;45.78;;
25639;SDS011;13497;48.322;16.204;2024-01-11T07:47:44;47.17;;;38.35;;
25639;SDS011;13497;48.322;16.204;2024-01-11T07:50:09;49.95;;;37.30;;
25639;SDS011;13497;48.322;16.204;2024-01-11T07:52:35;53.55;;;39.63;;
25639;SDS011;13497;48.322;16.204;2024-01-11T07:55:02;58.05;;;42.78;;
25639;SDS011;13497;48.322;16.204;2024-01-11T07:57:35;42.53;;;36.30;;
25639;SDS011;13497;48.322;16.204;2024-01-11T08:00:04;52.40;;;44.03;;
25639;SDS011;13497;48.322;16.204;2024-01-11T08:02:34;43.63;;;36.38;;
25639;SDS011;13497;48.322;16.204;2024-01-11T08:05:03;50.90;;;38.13;;
25639;SDS011;13497;48.322;16.204;2024-01-11T08:07:29;53.58;;;38.15;;
25639;SDS011;13497;48.322;16.204;2024-01-11T08:09:55;49.00;;;40.85;;
25639;SDS011;13497;48.322;16.204;2024-01-11T08:12:21;52.38;;;38.38;;
25639;SDS011;13497;48.322;16.204;2024-01-11T08:14:47;53.80;;;42.83;;
25639;SDS011;13497;48.322;16.204;2024-01-11T08:17:13;48.85;;;40.60;;
25639;SDS011;13497;48.322;16.204;2024-01-11T08:19:39;54.45;;;37.53;;
25639;SDS011;13497;48.322;16.204;2024-01-11T08:22:07;68.55;;;47.45;;
25639;SDS011;13497;48.322;16.204;2024-01-11T08:24:33;58.13;;;47.15;;
25639;SDS011;13497;48.322;16.204;2024-01-11T08:27:00;64.40;;;48.50;;
25639;SDS011;13497;48.322;16.204;2024-01-11T08:29:26;75.40;;;51.22;;
25639;SDS011;13497;48.322;16.204;2024-01-11T08:31:53;46.97;;;39.42;;
25639;SDS011;13497;48.322;16.204;2024-01-11T08:34:20;49.05;;;34.45;;
25639;SDS011;13497;48.322;16.204;2024-01-11T08:36:46;44.03;;;37.65;;
25639;SDS011;13497;48.322;16.204;2024-01-11T08:39:12;46.65;;;35.05;;
25639;SDS011;13497;48.322;16.204;2024-01-11T08:41:39;52.72;;;38.53;;
25639;SDS011;13497;48.322;16.204;2024-01-11T08:44:05;39.10;;;32.97;;
25639;SDS011;13497;48.322;16.204;2024-01-11T08:46:31;44.15;;;35.70;;
25639;SDS011;13497;48.322;16.204;2024-01-11T08:48:58;36.90;;;32.95;;
25639;SDS011;13497;48.322;16.204;2024-01-11T08:51:24;38.28;;;32.17;;
25639;SDS011;13497;48.322;16.204;2024-01-11T08:53:50;45.78;;;41.03;;
25639;SDS011;13497;48.322;16.204;2024-01-11T08:56:18;41.47;;;36.45;;
25639;SDS011;13497;48.322;16.204;2024-01-11T08:58:43;41.80;;;37.03;;
25639;SDS011;13497;48.322;16.204;2024-01-11T09:01:09;48.22;;;39.53;;
25639;SDS011;13497;48.322;16.204;2024-01-11T09:03:35;43.45;;;32.30;;
25639;SDS011;13497;48.322;16.204;2024-01-11T09:06:02;42.65;;;33.63;;
25639;SDS011;13497;48.322;16.204;2024-01-11T09:08:28;38.25;;;30.98;;
25639;SDS011;13497;48.322;16.204;2024-01-11T09:10:55;39.13;;;31.63;;
25639;SDS011;13497;48.322;16.204;2024-01-11T09:13:21;41.22;;;35.08;;
25639;SDS011;13497;48.322;16.204;2024-01-11T09:15:47;39.92;;;32.67;;
25639;SDS011;13497;48.322;16.204;2024-01-11T09:18:12;40.28;;;33.67;;
25639;SDS011;13497;48.322;16.204;2024-01-11T09:20:38;37.10;;;31.42;;
25639;SDS011;13497;48.322;16.204;2024-01-11T09:23:03;36.25;;;30.70;;
25639;SDS011;13497;48.322;16.204;2024-01-11T09:25:32;34.47;;;30.90;;
25639;SDS011;13497;48.322;16.204;2024-01-11T09:27:58;39.20;;;31.05;;
25639;SDS011;13497;48.322;16.204;2024-01-11T09:30:24;36.35;;;32.58;;
25639;SDS011;13497;48.322;16.204;2024-01-11T09:32:50;39.17;;;28.98;;
25639;SDS011;13497;48.322;16.204;2024-01-11T09:35:15;37.80;;;33.92;;
25639;SDS011;13497;48.322;16.204;2024-01-11T09:37:41;41.97;;;34.40;;
25639;SDS011;13497;48.322;16.204;2024-01-11T09:40:08;41.05;;;32.38;;
25639;SDS011;13497;48.322;16.204;2024-01-11T09:42:36;37.10;;;31.65;;
25639;SDS011;13497;48.322;16.204;2024-01-11T09:45:02;36.38;;;32.13;;
25639;SDS011;13497;48.322;16.204;2024-01-11T09:47:41;40.53;;;31.60;;
25639;SDS011;13497;48.322;16.204;2024-01-11T09:50:09;43.30;;;33.10;;
25639;SDS011;13497;48.322;16.204;2024-01-11T09:52:35;36.35;;;32.58;;
25639;SDS011;13497;48.322;16.204;2024-01-11T09:55:04;40.13;;;35.28;;
25639;SDS011;13497;48.322;16.204;2024-01-11T09:57:31;40.20;;;32.97;;
25639;SDS011;13497;48.322;16.204;2024-01-11T10:00:00;40.47;;;30.27;;
25639;SDS011;13497;48.322;16.204;2024-01-11T10:02:32;43.67;;;33.97;;
25639;SDS011;13497;48.322;16.204;2024-01-11T10:04:58;35.80;;;31.75;;
25639;SDS011;13497;48.322;16.204;2024-01-11T10:07:24;38.05;;;33.67;;
25639;SDS011;13497;48.322;16.204;2024-01-11T10:09:51;45.40;;;32.33;;
25639;SDS011;13497;48.322;16.204;2024-01-11T10:12:17;41.90;;;34.05;;
25639;SDS011;13497;48.322;16.204;2024-01-11T10:14:45;47.50;;;34.42;;
25639;SDS011;13497;48.322;16.204;2024-01-11T10:17:12;37.00;;;33.08;;
25639;SDS011;13497;48.322;16.204;2024-01-11T10:19:37;43.67;;;38.22;;
25639;SDS011;13497;48.322;16.204;2024-01-11T10:22:03;37.03;;;31.83;;
25639;SDS011;13497;48.322;16.204;2024-01-11T10:24:30;38.90;;;34.40;;
25639;SDS011;13497;48.322;16.204;2024-01-11T10:26:55;41.38;;;34.15;;
25639;SDS011;13497;48.322;16.204;2024-01-11T10:29:31;35.13;;;30.55;;
25639;SDS011;13497;48.322;16.204;2024-01-11T10:31:58;29.27;;;22.30;;
25639;SDS011;13497;48.322;16.204;2024-01-11T10:34:23;37.63;;;33.70;;
25639;SDS011;13497;48.322;16.204;2024-01-11T10:36:50;43.70;;;35.38;;
25639;SDS011;13497;48.322;16.204;2024-01-11T10:39:16;42.03;;;35.72;;
25639;SDS011;13497;48.322;16.204;2024-01-11T10:41:45;38.30;;;34.15;;
25639;SDS011;13497;48.322;16.204;2024-01-11T10:44:19;38.13;;;33.97;;
25639;SDS011;13497;48.322;16.204;2024-01-11T10:46:49;41.45;;;33.78;;
25639;SDS011;13497;48.322;16.204;2024-01-11T10:49:16;39.47;;;31.55;;
25639;SDS011;13497;48.322;16.204;2024-01-11T10:52:05;39.55;;;29.60;;
25639;SDS011;13497;48.322;16.204;2024-01-11T10:54:31;42.70;;;35.78;;
25639;SDS011;13497;48.322;16.204;2024-01-11T10:56:59;41.00;;;33.78;;
25639;SDS011;13497;48.322;16.204;2024-01-11T10:59:28;38.13;;;33.92;;
25639;SDS011;13497;48.322;16.204;2024-01-11T11:01:57;44.78;;;36.13;;
25639;SDS011;13497;48.322;16.204;2024-01-11T11:04:24;39.40;;;34.53;;
25639;SDS011;13497;48.322;16.204;2024-01-11T11:06:51;42.17;;;31.95;;
25639;SDS011;13497;48.322;16.204;2024-01-11T11:09:20;42.97;;;38.65;;
25639;SDS011;13497;48.322;16.204;2024-01-11T11:11:46;41.10;;;31.50;;
25639;SDS011;13497;48.322;16.204;2024-01-11T11:14:15;39.45;;;30.73;;
25639;SDS011;13497;48.322;16.204;2024-01-11T11:16:42;36.25;;;32.40;;
25639;SDS011;13497;48.322;16.204;2024-01-11T11:19:09;41.90;;;28.92;;
25639;SDS011;13497;48.322;16.204;2024-01-11T11:21:43;41.97;;;33.03;;
25639;SDS011;13497;48.322;16.204;2024-01-11T11:24:10;40.45;;;27.98;;
25639;SDS011;13497;48.322;16.204;2024-01-11T11:26:36;40.58;;;32.83;;
25639;SDS011;13497;48.322;16.204;2024-01-11T11:29:03;41.80;;;36.67;;
25639;SDS011;13497;48.322;16.204;2024-01-11T11:34:04;41.15;;;29.98;;
25639;SDS011;13497;48.322;16.204;2024-01-11T11:36:30;45.05;;;37.42;;
25639;SDS011;13497;48.322;16.204;2024-01-11T11:38:59;36.33;;;29.38;;
25639;SDS011;13497;48.322;16.204;2024-01-11T11:41:26;37.40;;;32.13;;
25639;SDS011;13497;48.322;16.204;2024-01-11T11:43:52;44.17;;;39.38;;
25639;SDS011;13497;48.322;16.204;2024-01-11T11:46:18;55.70;;;40.05;;
25639;SDS011;13497;48.322;16.204;2024-01-11T11:48:48;46.05;;;40.05;;
25639;SDS011;13497;48.322;16.204;2024-01-11T11:51:16;47.17;;;37.70;;
25639;SDS011;13497;48.322;16.204;2024-01-11T11:53:46;43.88;;;34.42;;
25639;SDS011;13497;48.322;16.204;2024-01-11T11:56:22;35.70;;;31.60;;
25639;SDS011;13497;48.322;16.204;2024-01-11T11:58:48;43.40;;;36.75;;
25639;SDS011;13497;48.322;16.204;2024-01-11T12:01:18;37.53;;;32.05;;
25639;SDS011;13497;48.322;16.204;2024-01-11T12:03:44;42.60;;;28.70;;
25639;SDS011;13497;48.322;16.204;2024-01-11T12:06:17;48.78;;;32.00;;
25639;SDS011;13497;48.322;16.204;2024-01-11T12:08:44;42.63;;;32.15;;
25639;SDS011;13497;48.322;16.204;2024-01-11T12:11:12;45.63;;;32.25;;
25639;SDS011;13497;48.322;16.204;2024-01-11T12:13:39;32.70;;;24.80;;
25639;SDS011;13497;48.322;16.204;2024-01-11T12:16:06;41.03;;;33.72;;
25639;SDS011;13497;48.322;16.204;2024-01-11T12:18:32;37.00;;;31.60;;
25639;SDS011;13497;48.322;16.204;2024-01-11T12:20:57;41.70;;;30.30;;
25639;SDS011;13497;48.322;16.204;2024-01-11T12:23:23;40.60;;;31.23;;
25639;SDS011;13497;48.322;16.204;2024-01-11T12:25:49;41.38;;;35.97;;
25639;SDS011;13497;48.322;16.204;2024-01-11T12:28:15;43.88;;;32.40;;
25639;SDS011;13497;48.322;16.204;2024-01-11T12:30:42;45.40;;;39.53;;
25639;SDS011;13497;48.322;16.204;2024-01-11T12:33:09;42.63;;;28.75;;
25639;SDS011;13497;48.322;16.204;2024-01-11T12:35:35;66.32;;;46.40;;
25639;SDS011;13497;48.322;16.204;2024-01-11T12:38:05;47.55;;;39.10;;
25639;SDS011;13497;48.322;16.204;2024-01-11T12:40:34;47.00;;;37.60;;
25639;SDS011;13497;48.322;16.204;2024-01-11T12:43:05;67.30;;;53.25;;
25639;SDS011;13497;48.322;16.204;2024-01-11T12:45:32;55.17;;;46.80;;
25639;SDS011;13497;48.322;16.204;2024-01-11T12:48:01;46.38;;;36.58;;
25639;SDS011;13497;48.322;16.204;2024-01-11T12:50:28;41.80;;;34.85;;
25639;SDS011;13497;48.322;16.204;2024-01-11T12:56:06;34.85;;;23.42;;
25639;SDS011;13497;48.322;16.204;2024-01-11T12:58:38;51.95;;;45.05;;
25639;SDS011;13497;48.322;16.204;2024-01-11T13:01:05;52.53;;;44.13;;
25639;SDS011;13497;48.322;16.204;2024-01-11T13:03:33;55.65;;;47.85;;
25639;SDS011;13497;48.322;16.204;2024-01-11T13:05:59;41.70;;;37.35;;
25639;SDS011;13497;48.322;16.204;2024-01-11T13:08:25;40.53;;;35.92;;
25639;SDS011;13497;48.322;16.204;2024-01-11T13:10:52;56.20;;;45.28;;
25639;SDS011;13497;48.322;16.204;2024-01-11T13:13:18;54.55;;;46.83;;
25639;SDS011;13497;48.322;16.204;2024-01-11T13:15:44;50.17;;;43.17;;
25639;SDS011;13497;48.322;16.204;2024-01-11T13:18:11;44.53;;;32.00;;
25639;SDS011;13497;48.322;16.204;2024-01-11T13:20:36;40.45;;;33.25;;
25639;SDS011;13497;48.322;16.204;2024-01-11T13:23:18;44.30;;;37.28;;
25639;SDS011;13497;48.322;16.204;2024-01-11T13:25:46;33.22;;;25.17;;
25639;SDS011;13497;48.322;16.204;2024-01-11T13:30:39;42.97;;;33.10;;
25639;SDS011;13497;48.322;16.204;2024-01-11T13:33:06;43.72;;;32.67;;
25639;SDS011;13497;48.322;16.204;2024-01-11T13:35:39;49.60;;;35.33;;
25639;SDS011;13497;48.322;16.204;2024-01-11T13:38:06;49.10;;;38.58;;
25639;SDS011;13497;48.322;16.204;2024-01-11T13:40:32;42.63;;;34.55;;
25639;SDS011;13497;48.322;16.204;2024-01-11T13:42:58;49.85;;;38.65;;
25639;SDS011;13497;48.322;16.204;2024-01-11T13:45:24;71.45;;;50.80;;
25639;SDS011;13497;48.322;16.204;2024-01-11T13:47:51;60.90;;;50.55;;
25639;SDS011;13497;48.322;16.204;2024-01-11T13:50:21;47.17;;;36.50;;
25639;SDS011;13497;48.322;16.204;2024-01-11T13:52:49;36.70;;;26.25;;
25639;SDS011;13497;48.322;16.204;2024-01-11T13:55:15;49.50;;;40.30;;
25639;SDS011;13497;48.322;16.204;2024-01-11T13:57:42;44.47;;;34.20;;
25639;SDS011;13497;48.322;16.204;2024-01-11T14:00:09;47.70;;;38.35;;
25639;SDS011;13497;48.322;16.204;2024-01-11T14:02:41;48.60;;;36.58;;
25639;SDS011;13497;48.322;16.204;2024-01-11T14:05:07;55.78;;;39.25;;
25639;SDS011;13497;48.322;16.204;2024-01-11T14:07:36;45.50;;;35.97;;
25639;SDS011;13497;48.322;16.204;2024-01-11T14:10:04;44.90;;;35.72;;
25639;SDS011;13497;48.322;16.204;2024-01-11T14:12:31;38.28;;;34.08;;
25639;SDS011;13497;48.322;16.204;2024-01-11T14:14:57;38.28;;;29.75;;